createdAt,value
2023-05-10T00:00:49.619Z,40.60
2023-05-10T00:03:19.044Z,41.00
2023-05-10T00:05:47.070Z,40.50
2023-05-10T00:08:15.060Z,40.70
2023-05-10T00:10:43.028Z,40.90
2023-05-10T00:13:11.026Z,40.40
2023-05-10T00:15:39.089Z,40.70
2023-05-10T00:18:07.237Z,40.20
2023-05-10T00:20:36.556Z,41.00
2023-05-10T00:23:04.595Z,40.90
2023-05-10T00:25:32.584Z,40.60
2023-05-10T00:28:02.275Z,40.70
2023-05-10T00:30:30.277Z,40.60
2023-05-10T00:32:58.283Z,40.70
2023-05-10T00:35:27.029Z,41.10
2023-05-10T00:37:56.382Z,41.60
2023-05-10T00:40:25.575Z,42.30
2023-05-10T00:42:53.573Z,41.80
2023-05-10T00:45:21.678Z,41.30
2023-05-10T00:47:49.787Z,41.60
2023-05-10T00:50:18.255Z,41.10
2023-05-10T00:52:46.656Z,41.50
2023-05-10T00:55:16.085Z,41.10
2023-05-10T00:57:44.547Z,41.00
2023-05-10T01:00:18.826Z,41.30
2023-05-10T01:02:47.185Z,42.10
2023-05-10T01:05:15.855Z,41.90
2023-05-10T01:07:43.985Z,41.80
2023-05-10T01:10:12.484Z,41.20
2023-05-10T01:12:45.265Z,41.20
2023-05-10T01:15:14.646Z,42.10
2023-05-10T01:17:44.748Z,42.00
2023-05-10T01:20:14.221Z,42.10
2023-05-10T01:23:13.209Z,42.20
2023-05-10T01:26:29.307Z,41.90
2023-05-10T01:29:21.360Z,41.90
2023-05-10T01:32:18.727Z,41.70
2023-05-10T01:34:56.836Z,42.30
2023-05-10T01:37:35.896Z,41.70
2023-05-10T01:40:15.684Z,42.10
2023-05-10T01:42:52.465Z,42.20
2023-05-10T01:45:31.124Z,41.90
2023-05-10T01:48:08.244Z,42.30
2023-05-10T01:50:39.730Z,41.70
2023-05-10T01:53:10.386Z,42.60
2023-05-10T01:55:45.556Z,41.50
2023-05-10T01:58:19.463Z,41.60
2023-05-10T02:00:49.376Z,42.40
2023-05-10T02:03:22.921Z,42.30
2023-05-10T02:05:52.645Z,42.40
2023-05-10T02:08:23.188Z,42.30
2023-05-10T02:10:54.640Z,41.70
2023-05-10T02:13:25.551Z,42.10
2023-05-10T02:15:55.577Z,42.30
2023-05-10T02:18:27.851Z,42.20
2023-05-10T02:20:57.822Z,42.10
2023-05-10T02:23:27.665Z,41.80
2023-05-10T02:25:56.989Z,42.50
2023-05-10T02:28:26.994Z,42.20
2023-05-10T02:30:56.701Z,42.70
2023-05-10T02:33:27.562Z,42.00
2023-05-10T02:35:56.901Z,42.50
2023-05-10T02:38:26.332Z,42.30
2023-05-10T02:40:57.551Z,42.10
2023-05-10T02:43:26.696Z,42.90
2023-05-10T02:45:55.132Z,42.10
2023-05-10T02:48:25.013Z,42.20
2023-05-10T02:50:55.070Z,42.20
2023-05-10T02:53:32.672Z,43.10
2023-05-10T02:56:04.750Z,42.40
2023-05-10T02:58:32.828Z,43.10
2023-05-10T03:01:02.200Z,42.20
2023-05-10T03:03:31.709Z,42.50
2023-05-10T03:06:00.007Z,42.40
2023-05-10T03:08:32.493Z,42.30
2023-05-10T03:11:19.432Z,42.60
2023-05-10T03:13:59.387Z,42.70
2023-05-10T03:16:35.901Z,42.20
2023-05-10T03:19:16.524Z,42.50
2023-05-10T03:21:53.056Z,42.90
2023-05-10T03:24:24.780Z,43.20
2023-05-10T03:26:55.829Z,42.90
2023-05-10T03:29:24.822Z,42.60
2023-05-10T03:31:53.055Z,43.20
2023-05-10T03:34:27.010Z,42.80
2023-05-10T03:36:56.741Z,42.80
2023-05-10T03:39:25.780Z,43.60
2023-05-10T03:41:53.926Z,42.70
2023-05-10T03:44:21.957Z,42.50
2023-05-10T03:46:50.208Z,43.00
2023-05-10T03:49:18.357Z,42.70
2023-05-10T03:51:47.719Z,43.20
2023-05-10T03:54:15.807Z,43.00
2023-05-10T03:56:43.875Z,42.90
2023-05-10T03:59:11.946Z,42.90
2023-05-10T04:01:40.291Z,42.80
2023-05-10T04:04:08.824Z,42.70
2023-05-10T04:06:36.914Z,42.90
2023-05-10T04:09:06.779Z,42.70
2023-05-10T04:11:38.558Z,42.60
2023-05-10T04:14:06.675Z,42.80
2023-05-10T04:16:34.798Z,42.70
2023-05-10T04:19:03.597Z,42.90
2023-05-10T04:21:31.755Z,43.30
2023-05-10T04:23:59.754Z,43.00
2023-05-10T04:26:29.106Z,42.80
2023-05-10T04:28:57.102Z,42.50
2023-05-10T04:31:25.161Z,41.70
2023-05-10T04:33:53.168Z,41.40
2023-05-10T04:36:21.266Z,40.60
2023-05-10T04:38:49.316Z,41.50
2023-05-10T04:41:17.377Z,41.40
2023-05-10T04:43:46.866Z,41.70
2023-05-10T04:46:14.896Z,41.60
2023-05-10T04:48:42.965Z,41.60
2023-05-10T04:51:11.122Z,40.90
2023-05-10T04:53:39.073Z,40.30
2023-05-10T04:56:08.186Z,39.70
2023-05-10T04:58:36.132Z,40.50
2023-05-10T05:01:09.388Z,40.10
2023-05-10T05:03:37.425Z,39.40
2023-05-10T05:06:06.236Z,39.70
2023-05-10T05:08:34.196Z,39.60
2023-05-10T05:11:02.161Z,39.10
2023-05-10T05:13:30.233Z,39.00
2023-05-10T05:15:58.285Z,39.10
2023-05-10T05:18:27.651Z,38.70
2023-05-10T05:20:55.836Z,38.20
2023-05-10T05:23:25.774Z,37.90
2023-05-10T05:25:54.389Z,38.30
2023-05-10T05:28:22.552Z,38.60
2023-05-10T05:30:50.652Z,38.40
2023-05-10T05:33:18.621Z,38.30
2023-05-10T05:35:51.608Z,38.10
2023-05-10T05:38:19.723Z,38.20
2023-05-10T05:40:47.871Z,38.20
2023-05-10T05:43:15.823Z,38.10
2023-05-10T05:45:43.841Z,38.00
2023-05-10T05:48:12.204Z,37.80
2023-05-10T05:50:40.390Z,38.00
2023-05-10T05:53:10.160Z,38.00
2023-05-10T05:55:38.186Z,37.70
2023-05-10T05:58:06.192Z,37.50
2023-05-10T06:00:34.259Z,36.50
2023-05-10T06:03:02.328Z,37.70
2023-05-10T06:05:30.346Z,38.40
2023-05-10T06:07:58.250Z,37.20
2023-05-10T06:10:27.656Z,38.10
2023-05-10T06:12:55.745Z,38.10
2023-05-10T06:15:24.010Z,38.10
2023-05-10T06:17:52.022Z,38.20
2023-05-10T06:20:20.327Z,38.00
2023-05-10T06:22:48.285Z,38.30
2023-05-10T06:25:18.973Z,38.00
2023-05-10T06:27:51.929Z,38.20
2023-05-10T06:30:23.964Z,38.20
2023-05-10T06:32:52.825Z,38.30
2023-05-10T06:35:20.906Z,38.10
2023-05-10T06:37:48.902Z,38.20
2023-05-10T06:40:17.390Z,38.00
2023-05-10T06:42:47.227Z,38.00
2023-05-10T06:45:17.728Z,37.40
2023-05-10T06:47:46.745Z,37.60
2023-05-10T06:50:15.033Z,38.20
2023-05-10T06:52:44.060Z,37.80
2023-05-10T06:55:12.819Z,37.80
2023-05-10T06:57:40.852Z,37.90
2023-05-10T07:00:10.578Z,38.10
2023-05-10T07:02:40.027Z,38.60
2023-05-10T07:05:08.838Z,37.80
2023-05-10T07:07:37.018Z,37.80
2023-05-10T07:10:05.974Z,37.80
2023-05-10T07:12:34.114Z,38.00
2023-05-10T07:15:02.143Z,38.40
2023-05-10T07:17:30.241Z,37.70
2023-05-10T07:19:59.602Z,37.50
2023-05-10T07:22:27.783Z,37.70
2023-05-10T07:24:56.590Z,37.50
2023-05-10T07:27:24.671Z,37.20
2023-05-10T07:29:52.686Z,37.40
2023-05-10T07:32:20.724Z,37.00
2023-05-10T07:34:48.707Z,37.40
2023-05-10T07:37:18.005Z,37.00
2023-05-10T07:39:45.984Z,37.90
2023-05-10T07:42:13.989Z,37.50
2023-05-10T07:44:42.704Z,38.00
2023-05-10T07:47:10.693Z,37.50
2023-05-10T07:49:39.199Z,37.20
2023-05-10T07:52:07.224Z,37.00
2023-05-10T07:54:36.560Z,37.10
2023-05-10T07:57:04.632Z,36.90
2023-05-10T07:59:33.170Z,37.30
2023-05-10T08:02:01.669Z,37.00
2023-05-10T08:04:29.768Z,36.40
2023-05-10T08:06:57.766Z,37.00
2023-05-10T08:09:25.697Z,36.40
2023-05-10T08:11:54.985Z,36.00
2023-05-10T08:14:22.961Z,36.60
2023-05-10T08:16:50.884Z,36.50
2023-05-10T08:19:20.374Z,35.50
2023-05-10T08:21:48.348Z,36.60
2023-05-10T08:24:16.636Z,35.90
2023-05-10T08:26:44.627Z,36.40
2023-05-10T08:29:13.919Z,36.50
2023-05-10T08:31:41.928Z,36.30
2023-05-10T08:34:09.911Z,36.50
2023-05-10T08:36:37.914Z,36.50
2023-05-10T08:39:11.234Z,36.50
2023-05-10T08:41:46.848Z,36.10
2023-05-10T08:44:17.550Z,36.10
2023-05-10T08:46:48.947Z,36.10
2023-05-10T08:49:20.192Z,36.10
2023-05-10T08:51:54.107Z,34.90
2023-05-10T08:54:23.314Z,35.60
2023-05-10T08:56:51.499Z,35.50
2023-05-10T08:59:20.940Z,35.30
2023-05-10T09:01:50.305Z,35.30
2023-05-10T09:04:18.628Z,36.20
2023-05-10T09:06:46.823Z,35.00
2023-05-10T09:09:15.688Z,34.70
2023-05-10T09:11:43.982Z,34.90
2023-05-10T09:14:13.424Z,34.60
2023-05-10T09:16:43.345Z,34.60
2023-05-10T09:19:11.764Z,34.60
2023-05-10T09:21:40.120Z,34.50
2023-05-10T09:24:09.753Z,34.80
2023-05-10T09:26:48.108Z,34.50
2023-05-10T09:29:17.691Z,34.50
2023-05-10T09:31:52.136Z,34.40
2023-05-10T09:34:22.400Z,33.90
2023-05-10T09:36:55.360Z,34.20
2023-05-10T09:39:32.110Z,35.00
2023-05-10T09:42:01.785Z,34.20
2023-05-10T09:44:29.819Z,34.60
2023-05-10T09:46:59.416Z,34.60
2023-05-10T09:49:27.530Z,34.80
2023-05-10T09:52:07.008Z,34.50
2023-05-10T09:54:35.813Z,34.30
2023-05-10T09:57:04.147Z,34.50
2023-05-10T09:59:35.729Z,34.10
2023-05-10T10:02:05.210Z,34.00
2023-05-10T10:04:33.769Z,33.50
2023-05-10T10:07:06.624Z,33.50
2023-05-10T10:09:36.582Z,33.00
2023-05-10T10:12:05.503Z,32.10
2023-05-10T10:14:33.685Z,32.50
2023-05-10T10:17:08.110Z,32.50
2023-05-10T10:19:38.037Z,32.40
2023-05-10T10:22:07.187Z,32.70
2023-05-10T10:24:35.403Z,31.40
2023-05-10T10:27:18.012Z,31.50
2023-05-10T10:29:58.117Z,31.70
2023-05-10T10:32:37.597Z,31.60
2023-05-10T10:35:06.801Z,31.10
2023-05-10T10:37:46.767Z,30.90
2023-05-10T10:40:29.880Z,31.60
2023-05-10T10:42:59.762Z,30.20
2023-05-10T10:45:28.317Z,30.20
2023-05-10T10:48:24.625Z,29.90
2023-05-10T10:50:59.535Z,30.20
2023-05-10T10:53:30.021Z,30.30
2023-05-10T10:56:10.091Z,30.00
2023-05-10T10:58:39.587Z,29.80
2023-05-10T11:01:16.873Z,29.90
2023-05-10T11:04:21.322Z,29.40
2023-05-10T11:06:49.496Z,29.50
2023-05-10T11:09:18.444Z,29.40
2023-05-10T11:11:56.947Z,29.30
2023-05-10T11:14:25.060Z,29.60
2023-05-10T11:16:53.395Z,29.50
2023-05-10T11:19:22.817Z,29.70
2023-05-10T11:21:53.440Z,29.50
2023-05-10T11:24:24.687Z,29.50
2023-05-10T11:26:53.183Z,29.80
2023-05-10T11:29:21.557Z,29.30
2023-05-10T11:31:50.773Z,29.10
2023-05-10T11:34:31.522Z,29.40
2023-05-10T11:37:00.179Z,30.10
2023-05-10T11:39:29.434Z,29.80
2023-05-10T11:41:58.061Z,28.90
2023-05-10T11:44:31.131Z,29.60
2023-05-10T11:47:01.047Z,29.20
2023-05-10T11:49:30.671Z,29.30
2023-05-10T11:52:07.172Z,29.30
2023-05-10T11:54:36.137Z,28.70
2023-05-10T11:57:04.248Z,28.80
2023-05-10T11:59:32.309Z,28.60
2023-05-10T12:02:00.582Z,28.20
2023-05-10T12:04:30.396Z,28.60
2023-05-10T12:06:58.661Z,29.00
2023-05-10T12:09:39.538Z,28.40
2023-05-10T12:12:11.023Z,28.00
2023-05-10T12:14:38.984Z,27.90
2023-05-10T12:17:07.006Z,28.10
2023-05-10T12:19:41.273Z,28.30
2023-05-10T12:22:09.265Z,28.50
2023-05-10T12:24:38.988Z,28.20
2023-05-10T12:27:08.947Z,27.80
2023-05-10T12:29:36.886Z,27.70
2023-05-10T12:32:05.018Z,27.80
2023-05-10T12:34:36.205Z,27.90
2023-05-10T12:37:06.190Z,28.10
2023-05-10T12:39:42.302Z,27.90
2023-05-10T12:42:11.045Z,27.50
2023-05-10T12:44:39.130Z,27.50
2023-05-10T12:47:07.516Z,27.60
2023-05-10T12:49:35.859Z,27.90
2023-05-10T12:52:05.342Z,27.40
2023-05-10T12:54:33.333Z,26.70
2023-05-10T12:57:01.257Z,27.00
2023-05-10T12:59:29.374Z,26.70
2023-05-10T13:01:57.415Z,26.40
2023-05-10T13:04:25.468Z,26.70
2023-05-10T13:06:53.462Z,26.50
2023-05-10T13:09:22.782Z,26.50
2023-05-10T13:11:51.331Z,26.10
2023-05-10T13:14:21.252Z,26.40
2023-05-10T13:16:49.666Z,25.70
2023-05-10T13:19:19.092Z,25.70
2023-05-10T13:21:47.247Z,26.80
2023-05-10T13:24:15.418Z,27.00
2023-05-10T13:26:45.301Z,27.20
2023-05-10T13:29:13.285Z,26.60
2023-05-10T13:31:41.313Z,26.80
2023-05-10T13:34:09.402Z,26.90
2023-05-10T13:36:37.396Z,26.30
2023-05-10T13:39:06.276Z,25.80
2023-05-10T13:41:34.444Z,26.20
2023-05-10T13:44:03.792Z,26.40
2023-05-10T13:46:32.273Z,25.50
2023-05-10T13:49:00.346Z,25.90
2023-05-10T13:51:28.395Z,26.60
2023-05-10T13:53:56.332Z,26.30
2023-05-10T13:56:24.360Z,26.40
2023-05-10T13:58:52.342Z,26.20
2023-05-10T14:01:21.745Z,26.40
2023-05-10T14:03:49.919Z,26.50
2023-05-10T14:06:18.225Z,26.90
2023-05-10T14:08:46.510Z,26.40
2023-05-10T14:11:14.621Z,27.30
2023-05-10T14:13:42.909Z,26.90
2023-05-10T14:16:10.961Z,26.50
2023-05-10T14:18:40.315Z,26.70
2023-05-10T14:21:08.328Z,26.60
2023-05-10T14:23:36.281Z,27.50
2023-05-10T14:26:04.714Z,27.40
2023-05-10T14:28:33.039Z,26.40
2023-05-10T14:31:01.088Z,26.70
2023-05-10T14:33:29.152Z,26.20
2023-05-10T14:35:58.519Z,25.20
2023-05-10T14:38:27.448Z,24.80
2023-05-10T14:40:55.394Z,25.80
2023-05-10T14:43:23.397Z,25.40
2023-05-10T14:45:51.485Z,25.50
2023-05-10T14:48:19.429Z,26.00
2023-05-10T14:50:47.635Z,25.50
2023-05-10T14:53:16.986Z,25.80
2023-05-10T14:55:45.058Z,26.30
2023-05-10T14:58:13.027Z,25.80
2023-05-10T15:00:41.095Z,25.60
2023-05-10T15:03:09.685Z,25.80
2023-05-10T15:05:38.680Z,26.20
2023-05-10T15:08:07.343Z,26.50
2023-05-10T15:10:37.709Z,25.70
2023-05-10T15:13:06.566Z,25.50
2023-05-10T15:15:34.554Z,26.30
2023-05-10T15:18:02.612Z,26.50
2023-05-10T15:20:30.619Z,26.90
2023-05-10T15:22:58.622Z,26.00
2023-05-10T15:25:26.951Z,26.00
2023-05-10T15:27:56.287Z,27.20
2023-05-10T15:30:24.433Z,27.40
2023-05-10T15:32:52.572Z,26.50
2023-05-10T15:35:20.788Z,26.40
2023-05-10T15:37:50.179Z,26.40
2023-05-10T15:40:18.401Z,26.20
2023-05-10T15:42:46.444Z,26.40
2023-05-10T15:45:16.357Z,26.50
2023-05-10T15:47:45.036Z,25.90
2023-05-10T15:50:13.258Z,26.00
2023-05-10T15:52:42.323Z,26.20
2023-05-10T15:55:13.118Z,25.70
2023-05-10T15:57:42.366Z,26.00
2023-05-10T16:00:12.487Z,26.30
2023-05-10T16:02:42.691Z,26.20
2023-05-10T16:05:11.848Z,25.80
2023-05-10T16:07:40.242Z,25.00
2023-05-10T16:10:11.112Z,25.30
2023-05-10T16:12:39.709Z,26.10
2023-05-10T16:15:09.551Z,25.60
2023-05-10T16:17:37.759Z,25.70
2023-05-10T16:20:09.190Z,25.20
2023-05-10T16:22:37.383Z,25.90
2023-05-10T16:25:06.728Z,25.80
2023-05-10T16:27:35.075Z,26.00
2023-05-10T16:30:03.210Z,24.80
2023-05-10T16:32:31.282Z,25.00
2023-05-10T16:35:00.396Z,24.80
2023-05-10T16:37:29.804Z,25.10
2023-05-10T16:39:57.849Z,25.40
2023-05-10T16:42:26.030Z,25.30
2023-05-10T16:44:54.992Z,25.50
2023-05-10T16:47:23.165Z,24.80
2023-05-10T16:49:51.178Z,25.20
2023-05-10T16:52:19.158Z,24.90
2023-05-10T16:54:48.451Z,25.20
2023-05-10T16:57:17.352Z,24.70
2023-05-10T16:59:45.403Z,24.60
2023-05-10T17:02:13.442Z,24.80
2023-05-10T17:04:41.536Z,24.70
2023-05-10T17:07:09.950Z,24.90
2023-05-10T17:09:37.977Z,25.30
2023-05-10T17:12:07.449Z,24.80
2023-05-10T17:14:35.512Z,25.70
2023-05-10T17:17:03.729Z,24.50
2023-05-10T17:19:32.052Z,24.50
2023-05-10T17:22:00.114Z,24.40
2023-05-10T17:24:30.087Z,24.60
2023-05-10T17:26:58.370Z,24.60
2023-05-10T17:29:28.844Z,24.90
2023-05-10T17:31:56.982Z,24.90
2023-05-10T17:34:25.483Z,24.70
2023-05-10T17:36:53.642Z,25.30
2023-05-10T17:39:21.665Z,25.10
2023-05-10T17:41:49.698Z,24.80
2023-05-10T17:44:17.790Z,24.80
2023-05-10T17:46:47.539Z,25.00
2023-05-10T17:49:16.137Z,25.80
2023-05-10T17:51:44.526Z,24.40
2023-05-10T17:54:12.531Z,24.90
2023-05-10T17:56:40.701Z,24.80
2023-05-10T17:59:08.734Z,25.60
2023-05-10T18:01:36.825Z,25.60
2023-05-10T18:04:06.316Z,25.00
2023-05-10T18:06:37.438Z,26.00
2023-05-10T18:09:07.190Z,26.30
2023-05-10T18:11:36.033Z,26.60
2023-05-10T18:14:04.558Z,26.00
2023-05-10T18:16:32.766Z,25.60
2023-05-10T18:19:01.026Z,26.30
2023-05-10T18:21:31.231Z,26.20
2023-05-10T18:23:59.168Z,25.70
2023-05-10T18:26:27.673Z,26.30
2023-05-10T18:28:55.647Z,26.90
2023-05-10T18:31:24.009Z,26.80
2023-05-10T18:33:52.220Z,27.10
2023-05-10T18:36:20.240Z,26.50
2023-05-10T18:38:49.573Z,27.00
2023-05-10T18:41:18.815Z,26.90
2023-05-10T18:43:46.813Z,26.90
2023-05-10T18:46:15.143Z,27.70
2023-05-10T18:48:43.269Z,27.40
2023-05-10T18:51:12.442Z,27.60
2023-05-10T18:53:40.470Z,27.80
2023-05-10T18:56:10.231Z,28.00
2023-05-10T18:58:38.451Z,28.20
2023-05-10T19:01:06.799Z,28.10
2023-05-10T19:03:34.821Z,28.50
2023-05-10T19:06:02.911Z,28.70
2023-05-10T19:08:31.628Z,28.70
2023-05-10T19:10:59.686Z,28.70
2023-05-10T19:13:30.263Z,28.80
2023-05-10T19:16:06.473Z,29.10
2023-05-10T19:18:34.843Z,29.40
2023-05-10T19:21:04.499Z,28.90
2023-05-10T19:23:34.295Z,29.40
2023-05-10T19:26:02.449Z,28.90
2023-05-10T19:28:31.853Z,29.80
2023-05-10T19:30:59.830Z,29.20
2023-05-10T19:33:27.894Z,29.70
2023-05-10T19:35:56.471Z,29.80
2023-05-10T19:38:25.938Z,30.00
2023-05-10T19:40:57.463Z,30.00
2023-05-10T19:43:25.593Z,30.50
2023-05-10T19:45:55.391Z,30.00
2023-05-10T19:48:23.517Z,30.50
2023-05-10T19:50:52.211Z,30.20
2023-05-10T19:53:20.292Z,30.20
2023-05-10T19:55:48.368Z,30.40
2023-05-10T19:58:16.670Z,31.00
2023-05-10T20:00:44.827Z,30.70
2023-05-10T20:03:14.362Z,30.70
2023-05-10T20:05:42.389Z,30.70
2023-05-10T20:08:10.510Z,30.90
2023-05-10T20:10:38.559Z,31.20
2023-05-10T20:13:08.194Z,31.50
2023-05-10T20:15:36.346Z,32.10
2023-05-10T20:18:04.691Z,32.40
2023-05-10T20:20:34.353Z,32.80
2023-05-10T20:23:02.460Z,32.70
2023-05-10T20:25:30.519Z,32.90
2023-05-10T20:27:58.544Z,32.70
2023-05-10T20:30:26.911Z,32.80
2023-05-10T20:32:55.185Z,33.40
2023-05-10T20:35:23.790Z,32.90
2023-05-10T20:37:53.138Z,33.20
2023-05-10T20:40:21.415Z,32.80
2023-05-10T20:42:49.610Z,33.00
2023-05-10T20:45:17.759Z,33.20
2023-05-10T20:47:45.885Z,33.50
2023-05-10T20:50:14.029Z,33.20
2023-05-10T20:52:42.039Z,33.20
2023-05-10T20:55:11.704Z,33.40
2023-05-10T20:57:40.314Z,33.60
2023-05-10T21:00:10.345Z,34.00
2023-05-10T21:02:38.448Z,34.00
2023-05-10T21:05:07.728Z,33.60
2023-05-10T21:07:35.961Z,33.70
2023-05-10T21:10:04.297Z,34.00
2023-05-10T21:12:33.833Z,34.30
2023-05-10T21:15:01.817Z,34.40
2023-05-10T21:17:30.212Z,34.10
2023-05-10T21:19:58.162Z,34.50
2023-05-10T21:22:26.210Z,34.70
2023-05-10T21:24:54.253Z,34.40
2023-05-10T21:27:22.373Z,34.40
2023-05-10T21:29:52.146Z,34.30
2023-05-10T21:32:20.163Z,34.50
2023-05-10T21:34:48.269Z,34.50
2023-05-10T21:37:17.168Z,34.40
2023-05-10T21:39:45.265Z,34.90
2023-05-10T21:42:13.287Z,34.70
2023-05-10T21:44:41.256Z,34.40
2023-05-10T21:47:10.819Z,35.00
2023-05-10T21:49:38.816Z,35.00
2023-05-10T21:52:07.208Z,35.20
2023-05-10T21:54:37.397Z,35.50
2023-05-10T21:57:05.517Z,34.90
2023-05-10T21:59:33.518Z,35.30
2023-05-10T22:02:01.550Z,35.20
2023-05-10T22:04:30.935Z,35.20
2023-05-10T22:06:59.244Z,35.00
2023-05-10T22:09:27.232Z,35.10
2023-05-10T22:11:55.453Z,34.40
2023-05-10T22:14:23.916Z,35.60
2023-05-10T22:16:51.971Z,34.60
2023-05-10T22:19:20.056Z,35.60
2023-05-10T22:21:49.461Z,34.90
2023-05-10T22:24:17.553Z,34.90
2023-05-10T22:26:45.828Z,35.30
2023-05-10T22:29:13.834Z,35.10
2023-05-10T22:31:41.876Z,34.30
2023-05-10T22:34:09.930Z,36.10
2023-05-10T22:36:38.185Z,36.20
2023-05-10T22:39:08.836Z,36.50
2023-05-10T22:41:36.933Z,35.80
2023-05-10T22:44:05.073Z,36.40
2023-05-10T22:46:33.272Z,35.50
2023-05-10T22:49:01.540Z,36.30
2023-05-10T22:51:29.661Z,36.60
2023-05-10T22:53:57.640Z,36.90
2023-05-10T22:56:27.100Z,36.90
2023-05-10T22:58:55.254Z,36.40
2023-05-10T23:01:23.265Z,36.30
2023-05-10T23:03:51.909Z,37.30
2023-05-10T23:06:19.867Z,37.90
2023-05-10T23:08:48.096Z,36.80
2023-05-10T23:11:16.346Z,37.20
2023-05-10T23:13:45.691Z,36.70
2023-05-10T23:16:13.732Z,37.50
2023-05-10T23:18:41.830Z,37.00
2023-05-10T23:21:09.867Z,37.10
2023-05-10T23:23:37.906Z,36.60
2023-05-10T23:26:06.016Z,37.50
2023-05-10T23:28:34.025Z,37.20
2023-05-10T23:31:03.401Z,37.30
2023-05-10T23:33:31.596Z,36.60
2023-05-10T23:35:59.623Z,37.10
2023-05-10T23:38:27.671Z,37.20
2023-05-10T23:40:55.723Z,37.30
2023-05-10T23:43:25.164Z,36.60
2023-05-10T23:45:57.995Z,36.70
2023-05-10T23:48:27.488Z,37.40
2023-05-10T23:50:55.821Z,36.50
2023-05-10T23:53:24.136Z,37.10
2023-05-10T23:55:52.086Z,37.40
2023-05-10T23:58:21.110Z,37.50
